North Washington, Iowa
Current Conditions -  °F | °C
As of 3:35 PM on Friday 19 Dec 2014 (Local Time) from KCCY Reporting Station
Overcast Overcast  
Wind Chill: 22°   Ceiling: 1400
Heat Index: 30°   Visibility: 8mi
Dew Point: 25°   Wind: 9mph
Humidity: 80%   Direction: 150°SSE
Pressure: 30.23"   Gusts: NA
Location:  43.12°N, 92.42°W
Report Text: KCCY 192135Z AUTO 15008KT 8SM OVC014 M01/M04 A3023 RMK AO2
Loading
Personal Weather Stations






























Interactive Weather Map New forecast layout! Learn more

10-Day Weather Forecast

Advertisements
Track Severe Weather on mobile